sim
Sign-in with your pilot id or email,
or register
Callsign
Passwort

Schedule Details

Flight Number: RYR296 (2)
Departure: Toulouse Blagnac Airport (LFBO) at 09:35
Arrival: London Stansted Airport (EGSS) at 11:35
Route: Ryanair Passenger Schedule. Enter filed route here before submitting Pirep.

Weather Information
Getting current METAR information for LFBO 241600Z AUTO 26013KT 9999 FEW023/// BKN028/// BKN033/// ///TCU 09/06 Q1008 TEMPO 27016G27KT 4000 SHRA
Getting current METAR information for EGSS 241550Z AUTO 09008KT 1400 R04/1300 -SN BKN003 BKN008 OVC029 00/00 Q0994

Schedule Frequency

Route Map